Time;durP1;ratioP1;P1;durP2;ratioP2;P2;SDS_P1;SDS_P2;PMS_P1;PMS_P2;Temp;Humidity;BMP_temperature;BMP_pressure;BME280_temperature;BME280_humidity;BME280_pressure;Samples;Min_cycle;Max_cycle;Signal;HPM_P1;HPM_P2
2022/04/24 00:01:50;;;;;;;1.50;1.20;;;9.30;96.30;;;;;;5111944;28;20998;-85
2022/04/24 00:04:17;;;;;;;0.57;0.57;;;9.40;96.10;;;;;;5111919;28;20615;-85
2022/04/24 00:06:46;;;;;;;2.30;0.60;;;9.50;96.10;;;;;;5110440;28;20627;-84
2022/04/24 00:09:17;;;;;;;0.63;0.60;;;9.50;96.00;;;;;;5111910;28;20639;-83
2022/04/24 00:11:45;;;;;;;2.10;0.67;;;9.60;95.80;;;;;;5111657;28;20194;-83
2022/04/24 00:14:14;;;;;;;1.03;0.93;;;9.60;95.80;;;;;;5109225;28;20653;-85
2022/04/24 00:16:43;;;;;;;1.30;0.83;;;9.60;95.80;;;;;;5112146;28;20628;-83
2022/04/24 00:19:10;;;;;;;1.57;1.47;;;9.70;95.90;;;;;;5112391;28;20615;-82
2022/04/24 00:21:37;;;;;;;2.00;0.93;;;9.60;96.00;;;;;;5113330;28;20704;-85
2022/04/24 00:24:08;;;;;;;0.80;0.80;;;9.50;96.40;;;;;;5112242;28;20619;-83
2022/04/24 00:26:37;;;;;;;0.77;0.60;;;9.40;97.10;;;;;;5112478;28;20627;-84
2022/04/24 00:29:05;;;;;;;0.60;0.53;;;9.40;97.40;;;;;;5113374;28;21181;-85
2022/04/24 00:31:32;;;;;;;2.47;1.80;;;9.30;97.80;;;;;;5113114;28;21195;-84
2022/04/24 00:34:00;;;;;;;1.27;1.17;;;9.40;97.70;;;;;;5112027;28;21193;-86
2022/04/24 00:36:27;;;;;;;0.60;0.57;;;9.40;97.30;;;;;;5111529;28;20202;-85
2022/04/24 00:38:54;;;;;;;0.50;0.50;;;9.60;97.00;;;;;;5112152;28;20624;-85
2022/04/24 00:41:23;;;;;;;0.90;0.90;;;9.60;96.50;;;;;;5111676;28;20615;-84
2022/04/24 00:43:53;;;;;;;1.00;0.87;;;9.60;96.40;;;;;;5112377;28;20619;-84
2022/04/24 00:46:37;;;;;;;3.07;2.87;;;9.60;96.50;;;;;;5110880;28;20746;-84
2022/04/24 00:49:04;;;;;;;0.70;0.30;;;9.60;96.90;;;;;;5111227;28;21184;-83
2022/04/24 00:51:31;;;;;;;1.87;1.77;;;9.50;97.10;;;;;;5111205;28;21181;-84
2022/04/24 00:53:57;;;;;;;0.50;0.43;;;9.40;97.70;;;;;;5111288;28;21189;-84
2022/04/24 00:56:30;;;;;;;1.13;1.03;;;9.30;98.70;;;;;;5109855;28;20624;-83
2022/04/24 00:58:58;;;;;;;1.07;0.97;;;9.30;98.50;;;;;;5111176;28;20678;-83
2022/04/24 01:01:25;;;;;;;2.77;2.57;;;9.40;98.50;;;;;;5109914;28;21124;-83
2022/04/24 01:03:53;;;;;;;0.70;0.70;;;9.50;98.40;;;;;;5110438;28;21278;-84
2022/04/24 01:06:20;;;;;;;0.90;0.90;;;9.50;98.00;;;;;;5110517;28;20715;-85
2022/04/24 01:08:47;;;;;;;1.30;1.17;;;9.60;98.00;;;;;;5111505;28;20640;-85
2022/04/24 01:11:15;;;;;;;2.23;2.03;;;9.60;97.90;;;;;;5110877;28;21044;-83
2022/04/24 01:13:44;;;;;;;2.73;2.43;;;9.60;98.00;;;;;;5111308;28;20619;-84
2022/04/24 01:16:12;;;;;;;4.40;2.10;;;9.60;98.30;;;;;;5110852;28;20704;-86
2022/04/24 01:18:41;;;;;;;1.37;1.27;;;9.70;98.20;;;;;;5110835;28;20624;-84
2022/04/24 01:21:10;;;;;;;1.70;0.50;;;9.60;98.00;;;;;;5111444;28;20726;-84
2022/04/24 01:23:39;;;;;;;1.03;1.03;;;9.70;98.00;;;;;;5110752;28;20746;-84
2022/04/24 01:26:07;;;;;;;10.20;2.60;;;9.80;97.80;;;;;;5109632;28;20626;-84
2022/04/24 01:28:34;;;;;;;1.47;1.40;;;9.80;97.70;;;;;;5110538;28;20623;-83
2022/04/24 01:31:01;;;;;;;4.10;0.83;;;9.80;97.40;;;;;;5110307;28;20620;-85
2022/04/24 01:33:29;;;;;;;1.57;1.47;;;9.80;97.30;;;;;;5109858;28;20614;-83
2022/04/24 01:35:56;;;;;;;1.20;1.10;;;9.80;97.10;;;;;;5109455;28;20654;-84
2022/04/24 01:38:25;;;;;;;0.70;0.70;;;9.80;97.30;;;;;;5109281;28;20624;-84
2022/04/24 01:40:52;;;;;;;2.60;2.27;;;9.80;97.20;;;;;;5109697;28;20648;-84
2022/04/24 01:43:20;;;;;;;2.10;0.60;;;9.80;97.50;;;;;;5110622;28;21070;-85
2022/04/24 01:45:47;;;;;;;1.00;0.83;;;9.80;98.20;;;;;;5109985;28;20212;-83
2022/04/24 01:48:14;;;;;;;0.40;0.40;;;9.80;97.90;;;;;;5110107;28;20663;-84
2022/04/24 01:50:41;;;;;;;1.67;1.23;;;9.80;97.70;;;;;;5109368;28;20627;-83
2022/04/24 01:53:08;;;;;;;1.30;1.20;;;9.80;97.30;;;;;;5109732;28;20627;-84
2022/04/24 01:55:36;;;;;;;0.53;0.50;;;9.90;97.10;;;;;;5108501;28;20616;-84
2022/04/24 01:58:03;;;;;;;1.63;1.30;;;9.90;96.90;;;;;;5109436;28;20688;-83
2022/04/24 02:00:30;;;;;;;1.80;1.70;;;9.80;96.90;;;;;;5108970;28;20639;-83
2022/04/24 02:02:57;;;;;;;1.50;1.40;;;9.90;96.90;;;;;;5108093;28;21266;-84
2022/04/24 02:05:24;;;;;;;0.77;0.77;;;9.90;97.00;;;;;;5107904;28;21279;-83
2022/04/24 02:07:51;;;;;;;1.87;0.83;;;9.90;97.90;;;;;;5108642;28;21178;-84
2022/04/24 02:10:18;;;;;;;1.30;1.20;;;9.90;98.00;;;;;;5108527;28;20703;-83
2022/04/24 02:12:46;;;;;;;1.30;1.20;;;9.90;98.20;;;;;;5108802;28;20612;-84
2022/04/24 02:15:13;;;;;;;0.40;0.30;;;9.80;98.60;;;;;;5108240;28;20612;-84
2022/04/24 02:17:40;;;;;;;1.80;1.70;;;9.80;99.10;;;;;;5108759;28;20624;-84
2022/04/24 02:20:08;;;;;;;3.40;3.20;;;9.80;99.30;;;;;;5108628;28;20676;-84
2022/04/24 02:22:35;;;;;;;1.45;1.38;;;9.80;99.80;;;;;;5096425;28;21096;-83
2022/04/24 02:25:04;;;;;;;0.60;0.60;;;9.80;99.90;;;;;;5108742;28;20609;-83
2022/04/24 02:27:31;;;;;;;1.77;1.03;;;9.80;99.90;;;;;;5108180;28;20703;-85
2022/04/24 02:29:59;;;;;;;0.50;0.50;;;9.70;99.90;;;;;;5108664;28;21490;-84
2022/04/24 02:32:26;;;;;;;2.67;2.37;;;9.70;99.90;;;;;;5107858;28;20622;-85
2022/04/24 02:34:53;;;;;;;0.60;0.30;;;9.60;99.90;;;;;;5108838;28;20630;-86
2022/04/24 02:37:20;;;;;;;0.87;0.87;;;9.60;99.90;;;;;;5107893;28;20708;-86
2022/04/24 02:39:47;;;;;;;6.43;1.40;;;9.60;99.90;;;;;;5108687;28;21169;-86
2022/04/24 02:42:14;;;;;;;6.83;4.43;;;9.70;99.90;;;;;;5105749;28;20746;-85
2022/04/24 02:44:40;;;;;;;12.50;4.83;;;9.70;99.90;;;;;;5108805;28;20680;-85
2022/04/24 02:47:09;;;;;;;5.77;3.20;;;9.70;99.90;;;;;;5108154;28;21492;-84
2022/04/24 02:49:36;;;;;;;3.70;3.40;;;9.60;99.90;;;;;;5108887;28;20626;-86
2022/04/24 02:52:03;;;;;;;7.80;4.80;;;9.60;99.90;;;;;;5109733;28;20684;-84
2022/04/24 02:54:30;;;;;;;2.73;2.53;;;9.60;99.90;;;;;;5109356;28;20623;-85
2022/04/24 02:56:57;;;;;;;11.90;8.13;;;9.60;99.90;;;;;;5109003;28;20749;-85
2022/04/24 02:59:25;;;;;;;12.40;10.03;;;9.70;99.90;;;;;;5097713;28;20631;-84
2022/04/24 03:01:54;;;;;;;13.00;8.63;;;9.70;99.90;;;;;;5108033;28;20635;-84
2022/04/24 03:04:22;;;;;;;14.77;9.70;;;9.60;99.90;;;;;;5103155;28;20635;-85
2022/04/24 03:06:49;;;;;;;16.57;11.40;;;9.60;99.90;;;;;;5109851;28;20690;-84
2022/04/24 03:09:16;;;;;;;16.70;11.60;;;9.60;99.90;;;;;;5109335;28;20628;-84
2022/04/24 03:11:43;;;;;;;16.80;11.10;;;9.50;99.90;;;;;;5109121;28;20704;-84
2022/04/24 03:14:10;;;;;;;12.70;7.57;;;9.40;99.90;;;;;;5108942;28;20646;-85
2022/04/24 03:16:36;;;;;;;8.93;7.87;;;9.40;99.90;;;;;;5108167;28;20719;-83
2022/04/24 03:19:03;;;;;;;14.03;9.27;;;9.40;99.90;;;;;;5108515;28;20651;-83
2022/04/24 03:21:32;;;;;;;8.53;7.70;;;9.40;99.90;;;;;;5109161;28;20619;-84
2022/04/24 03:23:59;;;;;;;12.60;9.67;;;9.40;99.90;;;;;;5113064;28;20665;-83
2022/04/24 03:26:26;;;;;;;10.70;9.60;;;9.40;99.90;;;;;;5112570;28;20722;-85
2022/04/24 03:28:52;;;;;;;11.80;9.00;;;9.40;99.90;;;;;;5113036;28;20652;-83
2022/04/24 03:31:19;;;;;;;12.40;8.83;;;9.50;99.90;;;;;;5113468;28;20625;-83
2022/04/24 03:33:46;;;;;;;6.40;5.20;;;9.50;99.90;;;;;;5111806;28;20719;-84
2022/04/24 03:36:13;;;;;;;4.33;3.17;;;9.60;99.90;;;;;;5112591;28;20627;-84
2022/04/24 03:38:42;;;;;;;2.97;2.30;;;9.60;99.90;;;;;;5112494;28;20630;-84
2022/04/24 03:41:09;;;;;;;3.17;2.27;;;9.60;99.90;;;;;;5112007;28;20619;-83
2022/04/24 03:43:36;;;;;;;6.63;2.83;;;9.60;99.90;;;;;;5111408;28;20655;-83
2022/04/24 03:46:05;;;;;;;2.30;2.10;;;9.60;99.90;;;;;;5095600;28;20607;-84
2022/04/24 03:48:32;;;;;;;4.93;2.70;;;9.50;99.90;;;;;;5111602;28;20722;-83
2022/04/24 03:50:59;;;;;;;3.07;2.80;;;9.50;99.90;;;;;;5112091;28;20650;-84
2022/04/24 03:53:26;;;;;;;2.83;2.50;;;9.50;99.90;;;;;;5111661;28;20742;-83
2022/04/24 03:55:54;;;;;;;2.60;2.40;;;9.50;99.90;;;;;;5110525;28;21132;-83
2022/04/24 03:58:21;;;;;;;3.50;2.60;;;9.50;99.90;;;;;;5111761;28;20631;-85
2022/04/24 04:00:48;;;;;;;3.33;2.27;;;9.50;99.90;;;;;;5110535;28;20663;-85
2022/04/24 04:03:16;;;;;;;3.00;2.23;;;9.50;99.90;;;;;;5111422;28;20649;-86
2022/04/24 04:05:43;;;;;;;1.60;1.50;;;9.50;99.90;;;;;;5111239;28;20714;-84
2022/04/24 04:08:10;;;;;;;1.10;1.00;;;9.50;99.90;;;;;;5111413;28;20644;-85
2022/04/24 04:10:37;;;;;;;2.00;1.70;;;9.60;99.90;;;;;;5111150;28;21084;-86
2022/04/24 04:13:08;;;;;;;1.10;1.00;;;9.60;99.90;;;;;;5111487;28;20619;-86
2022/04/24 04:15:35;;;;;;;0.83;0.63;;;9.60;99.90;;;;;;5110654;28;20627;-86
2022/04/24 04:18:02;;;;;;;1.53;1.10;;;9.60;99.90;;;;;;5111046;28;20627;-85
2022/04/24 04:20:29;;;;;;;1.73;1.17;;;9.60;99.90;;;;;;5110583;28;20626;-83
2022/04/24 04:22:56;;;;;;;1.70;1.60;;;9.60;99.90;;;;;;5110847;28;20708;-84
2022/04/24 04:25:24;;;;;;;1.40;1.40;;;9.60;99.90;;;;;;5110171;28;20670;-85
2022/04/24 04:27:52;;;;;;;0.70;0.70;;;9.70;99.90;;;;;;5110562;28;20644;-86
2022/04/24 04:30:22;;;;;;;1.43;1.33;;;9.70;99.90;;;;;;5110950;28;20626;-85
2022/04/24 04:32:50;;;;;;;0.87;0.70;;;9.70;99.90;;;;;;5095321;28;20970;-85
2022/04/24 04:35:22;;;;;;;4.10;2.80;;;9.60;99.90;;;;;;5110284;28;21043;-86
2022/04/24 04:37:49;;;;;;;0.68;0.68;;;9.60;99.90;;;;;;5111177;28;20627;-86
2022/04/24 04:40:18;;;;;;;0.40;0.20;;;9.30;99.90;;;;;;5111236;28;20644;-86
2022/04/24 04:42:45;;;;;;;0.50;0.50;;;9.10;99.90;;;;;;5110465;28;20577;-86
2022/04/24 04:45:12;;;;;;;0.75;0.60;;;9.00;99.90;;;;;;5110668;28;20210;-87
2022/04/24 04:47:41;;;;;;;0.30;0.20;;;8.80;99.90;;;;;;5110278;28;20262;-87
2022/04/24 04:50:08;;;;;;;0.30;0.10;;;8.60;99.90;;;;;;5110289;28;20283;-86
2022/04/24 04:52:35;;;;;;;0.30;0.20;;;8.50;99.90;;;;;;5110878;28;20672;-85
2022/04/24 04:55:03;;;;;;;0.30;0.20;;;8.40;99.90;;;;;;5110623;28;20221;-84
2022/04/24 04:57:29;;;;;;;0.40;0.30;;;8.40;99.90;;;;;;5110746;28;20259;-83
2022/04/24 04:59:56;;;;;;;0.30;0.20;;;8.30;99.90;;;;;;5110198;28;20262;-83
2022/04/24 05:02:23;;;;;;;0.30;0.20;;;8.20;99.90;;;;;;5109263;28;20277;-83
2022/04/24 05:04:51;;;;;;;0.30;0.15;;;8.20;99.90;;;;;;5110736;28;20307;-81
2022/04/24 05:07:18;;;;;;;0.30;0.17;;;8.00;99.90;;;;;;5110505;28;20280;-82
2022/04/24 05:09:45;;;;;;;0.30;0.20;;;8.10;99.90;;;;;;5111293;28;20229;-82
2022/04/24 05:12:12;;;;;;;0.30;0.20;;;7.90;99.90;;;;;;5110960;28;20551;-81
2022/04/24 05:14:39;;;;;;;0.30;0.10;;;7.90;99.90;;;;;;5109935;28;20205;-83
2022/04/24 05:17:06;;;;;;;0.30;0.20;;;7.80;99.90;;;;;;5110839;28;20305;-82
2022/04/24 05:19:33;;;;;;;0.30;0.20;;;7.70;99.90;;;;;;5111894;28;20201;-82
2022/04/24 05:22:01;;;;;;;0.30;0.20;;;7.80;99.90;;;;;;5113067;28;20294;-82
2022/04/24 05:24:28;;;;;;;0.30;0.20;;;7.60;99.90;;;;;;5112567;28;20594;-82
2022/04/24 05:26:55;;;;;;;0.30;0.20;;;7.50;99.90;;;;;;5109940;28;20235;-83
2022/04/24 05:29:22;;;;;;;0.30;0.10;;;7.60;99.90;;;;;;5110729;28;20603;-82
2022/04/24 05:31:49;;;;;;;0.30;0.10;;;7.50;99.90;;;;;;5110915;28;20235;-83
2022/04/24 05:34:16;;;;;;;0.30;0.20;;;7.50;99.90;;;;;;5110661;28;20258;-83
2022/04/24 05:36:43;;;;;;;0.30;0.10;;;7.40;99.90;;;;;;5109443;28;20217;-83
2022/04/24 05:39:11;;;;;;;0.30;0.10;;;7.30;99.90;;;;;;5110090;28;20205;-83
2022/04/24 05:41:38;;;;;;;0.30;0.10;;;7.20;99.90;;;;;;5109523;28;20262;-83
2022/04/24 05:44:05;;;;;;;0.30;0.20;;;7.10;99.90;;;;;;5108459;28;20261;-84
2022/04/24 05:46:32;;;;;;;0.30;0.20;;;7.10;99.90;;;;;;5108680;28;20301;-84
2022/04/24 05:49:00;;;;;;;0.30;0.10;;;7.20;99.90;;;;;;5109390;28;20661;-84
2022/04/24 05:51:27;;;;;;;0.30;0.20;;;7.20;99.90;;;;;;5109504;28;20208;-84
2022/04/24 05:53:54;;;;;;;0.30;0.20;;;7.20;99.90;;;;;;5109625;27;20270;-85
2022/04/24 05:56:23;;;;;;;0.30;0.10;;;7.20;99.90;;;;;;5108313;28;20290;-86
2022/04/24 05:58:50;;;;;;;0.30;0.20;;;7.20;99.90;;;;;;5109404;28;20258;-85
2022/04/24 06:01:17;;;;;;;0.30;0.20;;;7.10;99.90;;;;;;5107794;28;20279;-85
2022/04/24 06:03:44;;;;;;;0.30;0.10;;;7.10;99.90;;;;;;5109737;28;20227;-86
2022/04/24 06:06:11;;;;;;;0.30;0.20;;;7.00;99.90;;;;;;5108540;28;20407;-86
2022/04/24 06:08:38;;;;;;;0.30;0.20;;;7.00;99.90;;;;;;5109210;28;20258;-87
2022/04/24 06:11:05;;;;;;;0.30;0.20;;;7.00;99.90;;;;;;5109376;28;20643;-85
2022/04/24 06:13:33;;;;;;;0.30;0.20;;;6.90;99.90;;;;;;5109201;28;20226;-86
2022/04/24 06:16:00;;;;;;;0.30;0.20;;;6.90;99.90;;;;;;5109030;28;20243;-86
2022/04/24 06:18:28;;;;;;;0.30;0.20;;;6.90;99.90;;;;;;5109696;28;20231;-86
2022/04/24 06:20:55;;;;;;;0.30;0.20;;;6.90;99.90;;;;;;5108803;28;20238;-86
2022/04/24 06:23:24;;;;;;;0.30;0.20;;;6.90;99.90;;;;;;5108692;28;20247;-85
2022/04/24 06:25:51;;;;;;;0.30;0.20;;;6.90;99.90;;;;;;5108936;28;20217;-85
2022/04/24 06:28:18;;;;;;;0.30;0.20;;;6.90;99.90;;;;;;5108385;28;20201;-86
2022/04/24 06:30:47;;;;;;;0.30;0.20;;;7.00;99.90;;;;;;5108726;28;20300;-86
2022/04/24 06:33:15;;;;;;;0.30;0.20;;;6.90;99.90;;;;;;5108462;28;20288;-86
2022/04/24 06:35:44;;;;;;;0.30;0.20;;;6.90;99.90;;;;;;5108240;28;20295;-86
2022/04/24 06:38:11;;;;;;;0.30;0.10;;;7.00;99.90;;;;;;5108511;28;20212;-85
2022/04/24 06:40:38;;;;;;;0.30;0.20;;;7.00;99.90;;;;;;5109024;28;20200;-85
2022/04/24 06:43:07;;;;;;;0.30;0.10;;;7.00;99.90;;;;;;5108383;28;20195;-86
2022/04/24 06:45:36;;;;;;;0.30;0.10;;;7.00;99.90;;;;;;5107583;28;20228;-85
2022/04/24 06:48:07;;;;;;;0.30;0.10;;;7.10;99.90;;;;;;5108606;28;20612;-85
2022/04/24 06:50:35;;;;;;;0.30;0.10;;;7.00;99.90;;;;;;5110202;28;20208;-86
2022/04/24 06:53:04;;;;;;;0.30;0.20;;;7.10;99.90;;;;;;5111132;28;20204;-86
2022/04/24 06:55:32;;;;;;;0.30;0.20;;;7.00;99.90;;;;;;5110069;28;20258;-86
2022/04/24 06:57:59;;;;;;;0.30;0.20;;;7.00;99.90;;;;;;5109776;28;20266;-86
2022/04/24 07:00:28;;;;;;;0.30;0.10;;;7.10;99.90;;;;;;5111806;28;20245;-86
2022/04/24 07:02:55;;;;;;;0.30;0.10;;;7.20;99.90;;;;;;5107842;28;20232;-87
2022/04/24 07:05:25;;;;;;;0.30;0.20;;;7.10;99.90;;;;;;5109774;28;20212;-86
2022/04/24 07:07:52;;;;;;;0.30;0.20;;;7.20;99.90;;;;;;5111831;28;20203;-86
2022/04/24 07:10:19;;;;;;;0.30;0.10;;;7.10;99.90;;;;;;5112722;28;20245;-86
2022/04/24 07:12:47;;;;;;;0.30;0.20;;;7.20;99.90;;;;;;5112144;28;20235;-87
2022/04/24 07:15:14;;;;;;;0.30;0.20;;;7.30;99.90;;;;;;5110021;28;20275;-86
2022/04/24 07:17:42;;;;;;;0.30;0.10;;;7.20;99.90;;;;;;5109023;28;20215;-86
2022/04/24 07:20:10;;;;;;;0.30;0.20;;;7.10;99.90;;;;;;5108989;28;20576;-86
2022/04/24 07:22:48;;;;;;;0.30;0.10;;;7.30;99.90;;;;;;5088231;28;20623;-87
2022/04/24 07:25:16;;;;;;;0.30;0.20;;;7.40;99.90;;;;;;5107227;28;20240;-86
2022/04/24 07:27:44;;;;;;;0.30;0.20;;;7.40;99.90;;;;;;5109853;28;20282;-86
2022/04/24 07:30:14;;;;;;;0.65;0.45;;;7.40;99.90;;;;;;5108814;28;20212;-86
2022/04/24 07:32:42;;;;;;;0.30;0.20;;;7.40;99.90;;;;;;5109781;28;20195;-87
2022/04/24 07:35:13;;;;;;;0.30;0.20;;;7.40;99.90;;;;;;5109778;28;20200;-86
2022/04/24 07:37:41;;;;;;;0.30;0.10;;;7.40;99.90;;;;;;5108395;28;20250;-86
2022/04/24 07:40:13;;;;;;;0.40;0.30;;;7.40;99.90;;;;;;5109026;28;20889;-88
2022/04/24 07:42:47;;;;;;;0.30;0.20;;;7.40;99.90;;;;;;5110592;28;20254;-86
2022/04/24 07:45:19;;;;;;;0.30;0.20;;;7.40;99.90;;;;;;5111853;28;20256;-87
2022/04/24 07:47:46;;;;;;;0.40;0.40;;;7.30;99.90;;;;;;5111016;28;20209;-87
2022/04/24 07:50:14;;;;;;;0.30;0.20;;;7.30;99.90;;;;;;5110909;28;20209;-86
2022/04/24 07:52:41;;;;;;;0.30;0.20;;;7.40;99.90;;;;;;5110970;28;20281;-88
2022/04/24 07:55:11;;;;;;;0.30;0.20;;;7.40;99.90;;;;;;5114393;28;20190;-87
2022/04/24 07:57:38;;;;;;;0.30;0.10;;;7.40;99.90;;;;;;5111435;28;20258;-87
2022/04/24 08:00:07;;;;;;;0.40;0.30;;;7.50;99.90;;;;;;5112440;28;20217;-86
2022/04/24 08:02:44;;;;;;;0.30;0.20;;;7.50;99.90;;;;;;5112252;28;20584;-87
2022/04/24 08:05:11;;;;;;;0.30;0.20;;;7.50;99.90;;;;;;5112242;28;20217;-89
2022/04/24 08:07:38;;;;;;;0.30;0.20;;;7.60;99.90;;;;;;5113533;28;20214;-87
2022/04/24 08:10:05;;;;;;;0.30;0.10;;;7.60;99.90;;;;;;5115462;28;20205;-87
2022/04/24 08:12:34;;;;;;;0.30;0.10;;;7.60;99.90;;;;;;5096023;28;20243;-88
2022/04/24 08:15:00;;;;;;;0.30;0.20;;;7.60;99.90;;;;;;5116000;28;20220;-87
2022/04/24 08:17:27;;;;;;;0.30;0.30;;;7.60;99.90;;;;;;5115590;28;20655;-87
2022/04/24 08:19:54;;;;;;;0.30;0.10;;;7.80;99.90;;;;;;5114443;28;20280;-87
2022/04/24 08:22:21;;;;;;;0.30;0.20;;;8.00;99.90;;;;;;5111031;28;20293;-86
2022/04/24 08:24:48;;;;;;;0.50;0.30;;;8.00;99.90;;;;;;5113537;28;20226;-86
2022/04/24 08:27:15;;;;;;;0.30;0.20;;;8.00;99.90;;;;;;5114139;28;20202;-86
2022/04/24 08:29:43;;;;;;;0.50;0.32;;;8.00;99.90;;;;;;5113411;28;20326;-86
2022/04/24 08:32:10;;;;;;;0.30;0.20;;;8.00;99.90;;;;;;5112584;28;20202;-85
2022/04/24 08:34:37;;;;;;;0.30;0.20;;;8.00;99.90;;;;;;5113156;28;20236;-86
2022/04/24 08:37:04;;;;;;;0.30;0.20;;;8.10;99.90;;;;;;5113285;28;20260;-86
2022/04/24 08:39:32;;;;;;;0.30;0.10;;;8.10;99.90;;;;;;5112743;28;20225;-86
2022/04/24 08:41:59;;;;;;;0.30;0.20;;;8.20;99.90;;;;;;5114767;28;20304;-86
2022/04/24 08:44:29;;;;;;;1.00;0.70;;;8.30;99.90;;;;;;5113575;28;20210;-86
2022/04/24 08:46:57;;;;;;;0.65;0.40;;;8.40;99.90;;;;;;5114420;28;20230;-86
2022/04/24 08:49:26;;;;;;;0.30;0.10;;;8.40;99.90;;;;;;5114342;28;20257;-86
2022/04/24 08:51:54;;;;;;;0.30;0.20;;;8.40;99.90;;;;;;5113727;28;20255;-87
2022/04/24 08:54:22;;;;;;;0.30;0.20;;;8.40;99.90;;;;;;5113845;28;20194;-86
2022/04/24 08:56:51;;;;;;;0.30;0.20;;;8.40;99.90;;;;;;5114334;28;20216;-85
2022/04/24 09:00:11;;;;;;;;;;;;;;;;;;;;;
2022/04/24 09:02:50;;;;;;;0.30;0.20;;;8.50;99.90;;;;;;4992589;28;20799;-85
2022/04/24 09:05:17;;;;;;;0.50;0.40;;;8.50;99.90;;;;;;5114790;28;20225;-85
2022/04/24 09:07:45;;;;;;;0.30;0.10;;;8.60;99.90;;;;;;5114025;28;20201;-85
2022/04/24 09:10:13;;;;;;;0.30;0.10;;;8.60;99.90;;;;;;5113055;28;20725;-85
2022/04/24 09:12:40;;;;;;;0.30;0.20;;;8.60;99.90;;;;;;5112043;28;20717;-85
2022/04/24 09:15:09;;;;;;;0.30;0.10;;;8.70;99.90;;;;;;5111212;28;20216;-85
2022/04/24 09:17:36;;;;;;;0.30;0.10;;;8.60;99.90;;;;;;5111449;28;20204;-84
2022/04/24 09:20:17;;;;;;;0.30;0.30;;;8.70;99.90;;;;;;5112166;28;20220;-85
2022/04/24 09:22:44;;;;;;;0.30;0.10;;;8.70;99.90;;;;;;5092399;28;20214;-84
2022/04/24 09:25:12;;;;;;;0.30;0.10;;;8.70;99.90;;;;;;5113067;28;20221;-84
2022/04/24 09:27:39;;;;;;;0.30;0.20;;;8.80;99.90;;;;;;5114434;28;20194;-85
2022/04/24 09:30:11;;;;;;;0.30;0.20;;;8.70;99.90;;;;;;5114175;28;20286;-85
2022/04/24 09:32:46;;;;;;;0.30;0.20;;;8.70;99.90;;;;;;5112151;28;20240;-86
2022/04/24 09:35:27;;;;;;;0.30;0.10;;;8.60;99.90;;;;;;5111168;28;20700;-85
2022/04/24 09:38:09;;;;;;;0.30;0.17;;;8.80;99.90;;;;;;5110533;28;20229;-86
2022/04/24 09:40:41;;;;;;;0.30;0.10;;;8.70;99.90;;;;;;5109847;28;20198;-86
2022/04/24 09:43:09;;;;;;;0.30;0.20;;;8.80;99.90;;;;;;5109739;28;20910;-86
2022/04/24 09:45:37;;;;;;;0.30;0.10;;;8.90;99.90;;;;;;5110278;28;20283;-86
2022/04/24 09:48:12;;;;;;;0.30;0.20;;;8.80;99.90;;;;;;5109825;28;20198;-86
2022/04/24 09:50:41;;;;;;;0.30;0.20;;;8.80;99.90;;;;;;5110062;28;20737;-86
2022/04/24 09:53:11;;;;;;;0.38;0.25;;;8.90;99.90;;;;;;5109729;28;20225;-86
2022/04/24 09:55:40;;;;;;;0.30;0.20;;;8.80;99.90;;;;;;5106247;28;20198;-87
2022/04/24 09:58:08;;;;;;;0.30;0.20;;;8.70;99.90;;;;;;5109952;28;20198;-86
2022/04/24 10:00:35;;;;;;;0.40;0.40;;;8.90;99.90;;;;;;5111470;28;20206;-86
2022/04/24 10:03:03;;;;;;;0.30;0.10;;;8.90;99.90;;;;;;5111798;28;20201;-86
2022/04/24 10:05:30;;;;;;;0.30;0.20;;;8.80;99.90;;;;;;5110620;28;20267;-87
2022/04/24 10:08:01;;;;;;;0.30;0.10;;;8.90;99.90;;;;;;5109875;28;20202;-87
2022/04/24 10:10:28;;;;;;;0.30;0.20;;;8.90;99.90;;;;;;5109635;28;20205;-87
2022/04/24 10:12:55;;;;;;;0.30;0.20;;;8.90;99.90;;;;;;5109484;28;20559;-86
2022/04/24 10:15:24;;;;;;;0.30;0.20;;;8.90;99.90;;;;;;5110486;28;20810;-87
2022/04/24 10:18:19;;;;;;;0.30;0.10;;;8.90;99.90;;;;;;5109940;27;20751;-88
2022/04/24 10:21:11;;;;;;;0.30;0.20;;;8.90;99.90;;;;;;5109766;28;20259;-87
2022/04/24 10:23:40;;;;;;;0.30;0.20;;;9.00;99.90;;;;;;5104884;28;20202;-86
2022/04/24 10:26:17;;;;;;;0.40;0.30;;;9.00;99.90;;;;;;5109572;28;20221;-87
2022/04/24 10:28:46;;;;;;;0.30;0.10;;;9.10;99.90;;;;;;5109893;28;20266;-88
2022/04/24 10:31:14;;;;;;;0.57;0.30;;;9.20;99.90;;;;;;5109394;28;20210;-87
2022/04/24 10:33:51;;;;;;;0.30;0.30;;;9.20;99.90;;;;;;5109366;28;20297;-87
2022/04/24 10:36:18;;;;;;;0.30;0.20;;;9.20;99.90;;;;;;5110056;28;20225;-86
2022/04/24 10:38:51;;;;;;;0.30;0.20;;;9.20;99.90;;;;;;5109596;28;20594;-86
2022/04/24 10:41:19;;;;;;;0.30;0.20;;;9.30;99.90;;;;;;5110657;28;20198;-87
2022/04/24 10:43:48;;;;;;;0.30;0.20;;;9.30;99.90;;;;;;5108617;28;20222;-87
2022/04/24 10:46:20;;;;;;;0.30;0.20;;;9.30;99.90;;;;;;5108900;28;20214;-86
2022/04/24 10:48:48;;;;;;;0.30;0.20;;;9.20;99.90;;;;;;5109547;28;20615;-87
2022/04/24 10:51:27;;;;;;;0.40;0.40;;;9.20;99.90;;;;;;5110137;28;20619;-87
2022/04/24 10:53:58;;;;;;;0.30;0.17;;;9.30;99.90;;;;;;5109099;28;20217;-87
2022/04/24 10:56:26;;;;;;;0.40;0.30;;;9.30;99.90;;;;;;5109208;28;20198;-87
2022/04/24 10:58:52;;;;;;;0.30;0.10;;;9.20;99.90;;;;;;5108996;28;20213;-86
2022/04/24 11:01:19;;;;;;;0.30;0.20;;;9.20;99.90;;;;;;5109391;28;20248;-86
2022/04/24 11:03:47;;;;;;;0.30;0.28;;;9.10;99.90;;;;;;5109662;28;20673;-87
2022/04/24 11:06:23;;;;;;;0.30;0.10;;;9.20;99.90;;;;;;5109117;28;20225;-86
2022/04/24 11:08:50;;;;;;;0.30;0.20;;;9.20;99.90;;;;;;5108641;28;20618;-86
2022/04/24 11:11:20;;;;;;;0.30;0.17;;;9.20;99.90;;;;;;5108746;28;20223;-87
2022/04/24 11:13:48;;;;;;;0.30;0.20;;;9.20;99.90;;;;;;5109088;28;20202;-86
2022/04/24 11:16:15;;;;;;;0.40;0.40;;;9.10;99.90;;;;;;5107269;28;20808;-86
2022/04/24 11:18:48;;;;;;;0.30;0.20;;;9.00;99.90;;;;;;5108840;28;20661;-88
2022/04/24 11:21:21;;;;;;;0.40;0.30;;;8.90;99.90;;;;;;5109645;28;20220;-87
2022/04/24 11:23:48;;;;;;;0.30;0.20;;;9.00;99.90;;;;;;5108672;28;20204;-87
2022/04/24 11:26:15;;;;;;;0.52;0.32;;;9.10;99.90;;;;;;5109425;28;20221;-88
2022/04/24 11:28:45;;;;;;;0.30;0.15;;;9.00;99.90;;;;;;5108715;28;20198;-87
2022/04/24 11:31:14;;;;;;;0.40;0.30;;;9.00;99.90;;;;;;5109318;28;20229;-87
2022/04/24 11:33:56;;;;;;;0.30;0.20;;;9.00;99.90;;;;;;5109185;28;20206;-87
2022/04/24 11:36:25;;;;;;;0.30;0.10;;;9.00;99.90;;;;;;5108929;28;20745;-87
2022/04/24 11:38:53;;;;;;;0.30;0.10;;;9.10;99.90;;;;;;5110396;28;20225;-87
2022/04/24 11:41:21;;;;;;;0.30;0.10;;;9.20;99.90;;;;;;5109879;28;20202;-87
2022/04/24 11:43:49;;;;;;;0.30;0.10;;;9.20;99.90;;;;;;5111172;28;20282;-87
2022/04/24 11:51:52;;;;;;;0.30;0.17;;;9.20;99.90;;;;;;5113334;28;20206;-86
2022/04/24 11:54:19;;;;;;;0.30;0.20;;;9.10;99.90;;;;;;5112799;28;20210;-87
2022/04/24 11:56:50;;;;;;;0.50;0.20;;;9.30;99.90;;;;;;5112399;28;20630;-87
2022/04/24 11:59:21;;;;;;;0.30;0.20;;;9.30;99.90;;;;;;5112508;28;20980;-88
2022/04/24 12:01:58;;;;;;;0.30;0.20;;;9.50;99.90;;;;;;5113248;28;20214;-87
2022/04/24 12:04:32;;;;;;;0.30;0.20;;;9.50;99.90;;;;;;5112287;28;20194;-87
2022/04/24 12:07:04;;;;;;;0.30;0.20;;;9.40;99.90;;;;;;5112709;28;20658;-86
2022/04/24 12:09:31;;;;;;;0.30;0.10;;;9.40;99.90;;;;;;5112332;28;20714;-86
2022/04/24 12:12:09;;;;;;;0.50;0.30;;;9.50;99.90;;;;;;5112910;28;20712;-87
2022/04/24 12:14:38;;;;;;;0.30;0.20;;;9.60;99.90;;;;;;5112344;28;21220;-86
2022/04/24 12:17:08;;;;;;;0.90;0.40;;;9.50;99.90;;;;;;5111551;28;20615;-86
2022/04/24 12:19:35;;;;;;;0.30;0.23;;;9.60;99.90;;;;;;5114696;28;20627;-86
2022/04/24 12:22:07;;;;;;;0.30;0.20;;;9.60;99.90;;;;;;5112570;28;21181;-87
2022/04/24 12:24:43;;;;;;;1.95;0.30;;;9.60;99.90;;;;;;5113169;28;20623;-86
2022/04/24 12:27:12;;;;;;;0.30;0.20;;;9.50;99.90;;;;;;5113955;28;20221;-87
2022/04/24 12:29:45;;;;;;;0.30;0.20;;;9.60;99.90;;;;;;5114766;28;20669;-86
2022/04/24 12:32:14;;;;;;;0.30;0.20;;;9.60;99.90;;;;;;5112824;28;21385;-86
2022/04/24 12:34:42;;;;;;;0.50;0.30;;;9.70;99.90;;;;;;5112773;28;20210;-86
2022/04/24 12:37:10;;;;;;;1.40;0.65;;;9.70;99.90;;;;;;5113930;28;20201;-87
2022/04/24 12:39:37;;;;;;;0.30;0.20;;;9.70;99.90;;;;;;5114138;28;20201;-86
2022/04/24 12:42:17;;;;;;;0.30;0.10;;;9.50;99.90;;;;;;5114901;28;20622;-87
2022/04/24 12:44:45;;;;;;;0.33;0.33;;;9.50;99.90;;;;;;5113628;28;20619;-87
2022/04/24 12:47:13;;;;;;;0.30;0.20;;;9.30;99.90;;;;;;5112396;28;20661;-86
2022/04/24 12:49:40;;;;;;;0.40;0.20;;;9.30;99.90;;;;;;5112028;28;20277;-86
2022/04/24 12:52:08;;;;;;;0.30;0.10;;;9.40;99.90;;;;;;5112785;28;20239;-86
2022/04/24 12:54:35;;;;;;;0.30;0.20;;;9.50;99.90;;;;;;5111599;28;20729;-88
2022/04/24 12:57:02;;;;;;;0.30;0.10;;;9.40;99.90;;;;;;5113266;28;20198;-87
2022/04/24 12:59:29;;;;;;;0.50;0.30;;;9.30;99.90;;;;;;5113128;28;20193;-85
2022/04/24 13:01:57;;;;;;;0.30;0.10;;;9.20;99.90;;;;;;5112997;28;20230;-86
2022/04/24 13:04:24;;;;;;;0.30;0.20;;;9.30;99.90;;;;;;5114434;27;20278;-87
2022/04/24 13:06:51;;;;;;;0.30;0.17;;;9.20;99.90;;;;;;5113893;28;20699;-86
2022/04/24 13:09:18;;;;;;;0.30;0.20;;;9.20;99.90;;;;;;5113595;28;20191;-87
2022/04/24 13:11:45;;;;;;;0.30;0.20;;;9.20;99.90;;;;;;5114218;28;20632;-86